Impacts TAF Board INFO
FOR SITUATIONAL AWARENESS. NOT TO BE USED FOR FLIGHT PLANNING PURPOSES.
IDs:

KSEA - Seattle-Tacoma Intl, WA, US

Issued at 1358 UTC 22 Nov 2017
Updated at 1447 UTC 22 Nov 2017
Potential Impact None Slight Moderate High
Time1353Z 22/15Z 22/16Z 22/17Z 22/18Z 22/19Z 22/20Z 22/21Z 22/22Z 22/23Z 23/00Z 23/01Z 23/02Z 23/03Z>>
Type OBS PRVL
  [TEMP]  
PRVL
  [TEMP]  
PRVL
  [TEMP]  
PRVL PRVL PRVL PRVL PRVL PRVL PRVL PRVL PRVL PRVL
VIS 10 >6
  [5]  
>6
  [5]  
>6
  [5]  
>6 >6 >6 >6 >6 >6 >6 >6 >6 >6
CIG 37 35
  [25]  
35
  [25]  
35
  [25]  
35 35 35 40 40 40 40 40 40 40
Cover OVC OVC
  [OVC]  
OVC
  [OVC]  
OVC
  [OVC]  
OVC OVC OVC OVC OVC OVC OVC OVC OVC OVC
FltCat VFR VFR
  [MVFR]  
VFR
  [MVFR]  
VFR
  [MVFR]  
VFR VFR VFR VFR VFR VFR VFR VFR VFR VFR
WX -- --
  [-SHRA BR]  
--
  [-SHRA BR]  
--
  [-SHRA BR]  
-- -- -- -SHRA -SHRA -SHRA -SHRA -SHRA -SHRA -SHRA
WDir VRB 170
[170]
170
[170]
170
[170]
170 170 170 180 180 180 180 180 180 180
WSpd 0 6
  [6]  
6
  [6]  
6
  [6]  
6 6 6 10 10 10 10 10 10 10
WGst -- --
  [--]  
--
  [--]  
--
  [--]  
-- -- -- -- -- -- -- -- -- --

Raw TAF
KSEA 221358Z 2214/2318 17006KT P6SM BKN035 OVC045
  TEMPO 2214/2218 5SM -SHRA BR BKN025 OVC035
  FM222100 18010KT P6SM -SHRA SCT025 OVC040
  FM230500 19013KT 5SM -SHRA BKN015 OVC030


Raw METAR
KSEA 221353Z 00000KT 10SM BKN037 OVC046 14/13 A2996 RMK AO2 SLP152 T01440133
KSEA 221253Z 16004KT 10SM OVC033 14/14 A2996 RMK AO2 SLP151 T01440139
KSEA 221153Z 19006KT 10SM OVC036 14/14 A2995 RMK AO2 RAE03 SLP149 P0000 60011 70124 T01440139 10150 20133 50002

METAR Board
Radar Display
Forecast Discussion

FOR SITUATIONAL AWARENESS. NOT TO BE USED FOR FLIGHT PLANNING PURPOSES.